createdAt,value
2023-01-26T00:02:19.948Z,1.92
2023-01-26T00:04:47.868Z,1.97
2023-01-26T00:07:15.748Z,2.19
2023-01-26T00:09:43.662Z,2.11
2023-01-26T00:12:11.596Z,2.20
2023-01-26T00:14:52.663Z,2.88
2023-01-26T00:17:27.999Z,3.47
2023-01-26T00:19:58.010Z,3.35
2023-01-26T00:22:27.208Z,3.56
2023-01-26T00:24:55.423Z,3.38
2023-01-26T00:27:23.277Z,3.47
2023-01-26T00:29:52.540Z,3.14
2023-01-26T00:32:20.392Z,3.09
2023-01-26T00:34:49.160Z,2.97
2023-01-26T00:37:17.001Z,3.32
2023-01-26T00:39:44.802Z,3.69
2023-01-26T00:42:13.899Z,4.01
2023-01-26T00:44:44.197Z,3.94
2023-01-26T00:47:14.870Z,3.94
2023-01-26T00:49:42.696Z,3.88
2023-01-26T00:52:11.262Z,3.67
2023-01-26T00:54:39.523Z,3.49
2023-01-26T00:57:07.748Z,3.71
2023-01-26T00:59:36.626Z,3.82
2023-01-26T01:02:04.803Z,3.18
2023-01-26T01:04:34.252Z,3.18
2023-01-26T01:07:02.105Z,3.35
2023-01-26T01:09:29.972Z,3.71
2023-01-26T01:11:57.758Z,3.66
2023-01-26T01:14:25.704Z,3.96
2023-01-26T01:16:56.254Z,3.48
2023-01-26T01:19:24.299Z,3.56
2023-01-26T01:21:53.364Z,3.83
2023-01-26T01:24:21.172Z,3.28
2023-01-26T01:26:50.243Z,3.46
2023-01-26T01:29:18.554Z,3.24
2023-01-26T01:31:46.352Z,3.24
2023-01-26T01:34:14.222Z,3.31
2023-01-26T01:36:41.903Z,3.65
2023-01-26T01:39:11.117Z,3.84
2023-01-26T01:41:38.829Z,3.62
2023-01-26T01:44:19.381Z,4.06
2023-01-26T01:46:50.865Z,4.03
2023-01-26T01:49:21.386Z,3.68
2023-01-26T01:51:54.924Z,4.02
2023-01-26T01:54:29.866Z,3.86
2023-01-26T01:57:01.628Z,3.93
2023-01-26T01:59:31.716Z,4.23
2023-01-26T02:01:59.811Z,3.92
2023-01-26T02:04:28.443Z,4.05
2023-01-26T02:07:00.074Z,4.18
2023-01-26T02:09:49.993Z,3.98
2023-01-26T02:12:21.626Z,4.08
2023-01-26T02:14:51.194Z,4.15
2023-01-26T02:17:18.916Z,3.79
2023-01-26T02:19:56.552Z,3.76
2023-01-26T02:22:36.093Z,3.89
2023-01-26T02:25:12.296Z,3.82
2023-01-26T02:27:41.468Z,3.04
2023-01-26T02:30:12.684Z,3.57
2023-01-26T02:32:40.503Z,3.65
2023-01-26T02:35:09.087Z,3.73
2023-01-26T02:37:36.837Z,3.87
2023-01-26T02:40:13.942Z,3.77
2023-01-26T02:42:44.244Z,4.03
2023-01-26T02:45:15.117Z,4.04
2023-01-26T02:47:44.983Z,4.02
2023-01-26T02:50:13.159Z,3.95
2023-01-26T02:52:43.867Z,4.38
2023-01-26T02:55:24.945Z,3.98
2023-01-26T02:57:56.156Z,4.17
2023-01-26T03:00:27.331Z,4.10
2023-01-26T03:02:57.566Z,3.70
2023-01-26T03:05:26.454Z,3.49
2023-01-26T03:07:55.546Z,3.68
2023-01-26T03:10:26.995Z,3.52
2023-01-26T03:12:56.076Z,3.96
2023-01-26T03:15:42.865Z,4.21
2023-01-26T03:18:31.107Z,3.99
2023-01-26T03:21:17.937Z,4.04
2023-01-26T03:24:13.167Z,3.85
2023-01-26T03:26:58.932Z,4.03
2023-01-26T03:29:28.928Z,3.91
2023-01-26T03:31:59.974Z,3.89
2023-01-26T03:34:29.506Z,4.15
2023-01-26T03:36:58.445Z,4.63
2023-01-26T03:39:45.459Z,4.56
2023-01-26T03:42:30.722Z,4.84
2023-01-26T03:45:17.733Z,4.48
2023-01-26T03:48:02.968Z,4.58
2023-01-26T03:50:48.728Z,4.86
2023-01-26T03:53:36.933Z,4.83
2023-01-26T03:56:19.113Z,4.82
2023-01-26T03:58:50.200Z,4.65
2023-01-26T04:01:25.988Z,4.74
2023-01-26T04:04:12.425Z,5.10
2023-01-26T04:06:59.638Z,4.71
2023-01-26T04:09:27.719Z,4.49
2023-01-26T04:11:56.438Z,4.49
2023-01-26T04:14:50.094Z,4.59
2023-01-26T04:17:41.888Z,4.98
2023-01-26T04:20:28.615Z,5.09
2023-01-26T04:22:56.871Z,5.19
2023-01-26T04:25:24.724Z,5.27
2023-01-26T04:27:53.175Z,5.12
2023-01-26T04:30:21.323Z,4.68
2023-01-26T04:32:52.509Z,5.09
2023-01-26T04:35:20.325Z,5.16
2023-01-26T04:37:49.083Z,5.22
2023-01-26T04:40:17.914Z,4.92
2023-01-26T04:42:47.026Z,5.03
2023-01-26T04:45:14.810Z,5.22
2023-01-26T04:47:44.634Z,5.36
2023-01-26T04:50:14.972Z,5.46
2023-01-26T04:52:42.912Z,5.30
2023-01-26T04:55:10.921Z,5.48
2023-01-26T04:57:40.930Z,4.96
2023-01-26T05:00:10.875Z,4.79
2023-01-26T05:02:40.281Z,4.52
2023-01-26T05:05:13.699Z,4.21
2023-01-26T05:07:43.348Z,3.85
2023-01-26T05:10:15.750Z,4.14
2023-01-26T05:13:05.308Z,4.22
2023-01-26T05:15:55.170Z,4.25
2023-01-26T05:18:41.301Z,4.44
2023-01-26T05:21:28.246Z,4.21
2023-01-26T05:23:58.290Z,4.55
2023-01-26T05:26:38.718Z,4.65
2023-01-26T05:29:11.255Z,4.11
2023-01-26T05:31:39.116Z,4.12
2023-01-26T05:34:07.593Z,3.81
2023-01-26T05:36:37.301Z,4.16
2023-01-26T05:39:06.376Z,3.44
2023-01-26T05:41:34.112Z,4.21
2023-01-26T05:44:20.224Z,4.33
2023-01-26T05:46:55.638Z,4.53
2023-01-26T05:49:23.549Z,3.93
2023-01-26T05:51:52.761Z,3.55
2023-01-26T05:54:22.118Z,3.79
2023-01-26T05:56:50.384Z,3.78
2023-01-26T05:59:18.264Z,4.31
2023-01-26T06:01:46.278Z,4.07
2023-01-26T06:04:18.696Z,3.96
2023-01-26T06:06:53.906Z,3.97
2023-01-26T06:09:27.481Z,3.48
2023-01-26T06:12:17.238Z,3.89
2023-01-26T06:14:56.918Z,3.51
2023-01-26T06:17:29.626Z,3.26
2023-01-26T06:20:00.085Z,3.72
2023-01-26T06:22:28.006Z,3.60
2023-01-26T06:24:57.080Z,3.80
2023-01-26T06:27:25.336Z,3.11
2023-01-26T06:29:54.235Z,3.33
2023-01-26T06:32:23.426Z,3.43
2023-01-26T06:34:54.922Z,3.91
2023-01-26T06:37:23.759Z,4.05
2023-01-26T06:39:53.167Z,4.13
2023-01-26T06:42:22.285Z,4.00
2023-01-26T06:44:51.776Z,3.30
2023-01-26T06:47:19.710Z,3.69
2023-01-26T06:49:47.489Z,4.23
2023-01-26T06:52:28.176Z,4.45
2023-01-26T06:55:00.725Z,4.03
2023-01-26T06:57:54.240Z,3.66
2023-01-26T07:00:45.745Z,3.88
2023-01-26T07:03:25.368Z,3.82
2023-01-26T07:05:53.230Z,4.24
2023-01-26T07:08:20.963Z,4.10
2023-01-26T07:10:50.094Z,4.52
2023-01-26T07:13:19.291Z,4.67
2023-01-26T07:15:48.975Z,4.29
2023-01-26T07:18:16.758Z,3.49
2023-01-26T07:20:44.534Z,2.86
2023-01-26T07:23:12.452Z,4.34
2023-01-26T07:25:43.953Z,4.77
2023-01-26T07:28:11.877Z,4.66
2023-01-26T07:30:41.187Z,4.79
2023-01-26T07:33:09.315Z,4.17
2023-01-26T07:35:37.088Z,4.03
2023-01-26T07:38:05.416Z,3.93
2023-01-26T07:40:34.290Z,3.80
2023-01-26T07:43:02.302Z,3.99
2023-01-26T07:45:52.351Z,3.48
2023-01-26T07:48:21.363Z,4.40
2023-01-26T07:50:49.713Z,4.40
2023-01-26T07:53:19.429Z,4.04
2023-01-26T07:55:48.704Z,4.15
2023-01-26T07:58:18.020Z,4.45
2023-01-26T08:00:47.246Z,5.03
2023-01-26T08:03:16.594Z,4.73
2023-01-26T08:05:44.540Z,4.34
2023-01-26T08:08:12.544Z,4.76
2023-01-26T08:10:40.613Z,4.83
2023-01-26T08:13:08.807Z,4.43
2023-01-26T08:15:36.720Z,3.98
2023-01-26T08:18:05.302Z,4.45
2023-01-26T08:20:36.696Z,4.90
2023-01-26T08:23:07.577Z,5.41
2023-01-26T08:25:35.479Z,5.25
2023-01-26T08:28:03.405Z,5.51
2023-01-26T08:30:31.272Z,5.32
2023-01-26T08:32:59.302Z,5.77
2023-01-26T08:35:27.151Z,4.83
2023-01-26T08:37:56.262Z,4.67
2023-01-26T08:40:24.734Z,4.52
2023-01-26T08:42:52.936Z,4.68
2023-01-26T08:45:20.765Z,4.64
2023-01-26T08:47:50.386Z,4.47
2023-01-26T08:50:18.597Z,3.90
2023-01-26T08:52:46.594Z,4.32
2023-01-26T08:55:15.807Z,4.31
2023-01-26T08:57:43.627Z,4.05
2023-01-26T09:00:13.147Z,4.46
2023-01-26T09:02:41.285Z,4.56
2023-01-26T09:05:10.343Z,4.02
2023-01-26T09:07:38.192Z,3.84
2023-01-26T09:10:07.363Z,3.90
2023-01-26T09:12:36.455Z,5.12
2023-01-26T09:15:04.932Z,5.10
2023-01-26T09:17:32.683Z,4.49
2023-01-26T09:20:00.487Z,4.33
2023-01-26T09:22:28.252Z,4.27
2023-01-26T09:24:56.070Z,5.40
2023-01-26T09:27:24.179Z,4.42
2023-01-26T09:29:53.762Z,5.38
2023-01-26T09:32:21.655Z,4.92
2023-01-26T09:34:49.501Z,4.99
2023-01-26T09:37:18.237Z,5.29
2023-01-26T09:39:46.477Z,4.99
2023-01-26T09:42:36.594Z,5.51
2023-01-26T09:45:16.609Z,4.91
2023-01-26T09:47:56.724Z,3.92
2023-01-26T09:50:28.374Z,4.87
2023-01-26T09:53:00.300Z,4.90
2023-01-26T09:55:30.245Z,3.65
2023-01-26T09:58:01.418Z,4.93
2023-01-26T10:00:35.614Z,5.45
2023-01-26T10:03:17.190Z,4.18
2023-01-26T10:05:50.990Z,5.08
2023-01-26T10:08:38.951Z,5.18
2023-01-26T10:11:15.717Z,5.01
2023-01-26T10:13:51.554Z,3.69
2023-01-26T10:16:25.378Z,4.54
2023-01-26T10:18:57.067Z,4.66
2023-01-26T10:21:27.976Z,4.93
2023-01-26T10:23:56.796Z,4.16
2023-01-26T10:26:25.156Z,4.73
2023-01-26T10:28:53.939Z,4.47
2023-01-26T10:31:26.414Z,3.88
2023-01-26T10:33:56.537Z,4.72
2023-01-26T10:36:25.211Z,4.03
2023-01-26T10:38:53.513Z,3.79
2023-01-26T10:41:25.677Z,4.35
2023-01-26T10:43:56.073Z,5.01
2023-01-26T10:46:31.500Z,4.84
2023-01-26T10:49:01.576Z,5.89
2023-01-26T10:51:32.062Z,5.52
2023-01-26T10:54:22.798Z,4.99
2023-01-26T10:56:54.498Z,5.71
2023-01-26T10:59:28.855Z,6.17
2023-01-26T11:02:01.462Z,5.14
2023-01-26T11:04:30.512Z,4.92
2023-01-26T11:07:25.253Z,4.82
2023-01-26T11:09:53.836Z,4.47
2023-01-26T11:12:25.878Z,5.61
2023-01-26T11:15:02.384Z,5.09
2023-01-26T11:17:38.038Z,5.28
2023-01-26T11:20:29.160Z,6.52
2023-01-26T11:23:05.230Z,5.55
2023-01-26T11:25:38.890Z,6.78
2023-01-26T11:28:24.207Z,5.47
2023-01-26T11:31:10.977Z,4.76
2023-01-26T11:33:52.229Z,5.22
2023-01-26T11:36:29.456Z,5.45
2023-01-26T11:39:06.775Z,5.35
2023-01-26T11:41:45.031Z,5.92
2023-01-26T11:44:25.583Z,4.51
2023-01-26T11:47:08.333Z,5.54
2023-01-26T11:50:08.039Z,6.01
2023-01-26T11:52:47.290Z,6.10
2023-01-26T11:55:24.454Z,5.94
2023-01-26T11:58:15.248Z,6.69
2023-01-26T12:00:46.745Z,6.83
2023-01-26T12:03:21.938Z,6.56
2023-01-26T12:05:55.116Z,6.57
2023-01-26T12:08:26.720Z,6.56
2023-01-26T12:11:22.365Z,6.07
2023-01-26T12:14:06.660Z,5.74
2023-01-26T12:16:46.631Z,6.45
2023-01-26T12:19:27.568Z,5.66
2023-01-26T12:22:01.936Z,5.08
2023-01-26T12:25:08.269Z,5.32
2023-01-26T12:27:36.097Z,5.64
2023-01-26T12:30:19.607Z,5.26
2023-01-26T12:32:47.776Z,5.44
2023-01-26T12:35:22.117Z,4.92
2023-01-26T12:38:16.677Z,5.81
2023-01-26T12:40:54.983Z,6.17
2023-01-26T12:43:38.873Z,5.02
2023-01-26T12:46:09.173Z,5.73
2023-01-26T12:48:42.473Z,5.78
2023-01-26T12:51:16.131Z,6.58
2023-01-26T12:53:53.049Z,5.92
2023-01-26T12:56:25.415Z,4.90
2023-01-26T12:58:56.372Z,5.43
2023-01-26T13:01:26.807Z,4.71
2023-01-26T13:03:57.734Z,5.25
2023-01-26T13:06:26.979Z,5.40
2023-01-26T13:09:06.009Z,5.40
2023-01-26T13:11:47.552Z,4.97
2023-01-26T13:14:37.382Z,4.50
2023-01-26T13:17:44.752Z,4.86
2023-01-26T13:20:24.861Z,4.39
2023-01-26T13:22:53.471Z,4.37
2023-01-26T13:25:32.432Z,5.08
2023-01-26T13:28:02.035Z,5.74
2023-01-26T13:30:46.385Z,5.50
2023-01-26T13:33:23.190Z,5.72
2023-01-26T13:35:53.451Z,4.79
2023-01-26T13:38:31.693Z,4.55
2023-01-26T13:41:01.215Z,4.51
2023-01-26T13:43:35.981Z,4.50
2023-01-26T13:46:15.367Z,4.46
2023-01-26T13:48:46.075Z,4.65
2023-01-26T13:51:17.841Z,4.87
2023-01-26T13:53:51.227Z,4.65
2023-01-26T13:56:27.581Z,4.45
2023-01-26T13:59:03.998Z,5.04
2023-01-26T14:01:32.300Z,4.83
2023-01-26T14:04:08.049Z,5.27
2023-01-26T14:06:38.470Z,5.16
2023-01-26T14:09:12.815Z,5.42
2023-01-26T14:11:42.953Z,5.58
2023-01-26T14:14:24.438Z,4.61
2023-01-26T14:16:52.492Z,4.78
2023-01-26T14:19:24.056Z,5.27
2023-01-26T14:21:54.518Z,4.67
2023-01-26T14:24:28.373Z,4.11
2023-01-26T14:26:59.775Z,4.18
2023-01-26T14:29:31.135Z,4.08
2023-01-26T14:32:01.511Z,4.29
2023-01-26T14:34:32.446Z,4.78
2023-01-26T14:37:08.719Z,5.20
2023-01-26T14:39:36.629Z,5.27
2023-01-26T14:42:07.168Z,5.29
2023-01-26T14:44:35.903Z,5.13
2023-01-26T14:47:10.522Z,4.48
2023-01-26T14:49:46.695Z,4.51
2023-01-26T14:52:25.513Z,5.39
2023-01-26T14:54:54.563Z,5.46
2023-01-26T14:57:26.286Z,4.61
2023-01-26T14:59:56.826Z,4.39
2023-01-26T15:02:26.707Z,4.46
2023-01-26T15:04:58.777Z,4.31
2023-01-26T15:07:38.824Z,5.04
2023-01-26T15:10:37.528Z,5.14
2023-01-26T15:13:20.343Z,5.53
2023-01-26T15:15:50.399Z,5.25
2023-01-26T15:18:20.565Z,4.25
2023-01-26T15:21:01.625Z,4.95
2023-01-26T15:23:32.257Z,5.08
2023-01-26T15:26:08.365Z,5.35
2023-01-26T15:28:38.654Z,5.59
2023-01-26T15:31:07.541Z,4.39
2023-01-26T15:33:40.846Z,4.43
2023-01-26T15:36:28.284Z,5.42
2023-01-26T15:39:13.810Z,5.23
2023-01-26T15:41:42.260Z,5.06
2023-01-26T15:44:16.500Z,5.49
2023-01-26T15:46:45.177Z,5.57
2023-01-26T15:49:13.649Z,5.03
2023-01-26T15:51:41.605Z,5.04
2023-01-26T15:54:11.394Z,4.92
2023-01-26T15:56:39.395Z,4.90
2023-01-26T15:59:07.678Z,5.58
2023-01-26T16:01:37.204Z,5.75
2023-01-26T16:04:05.249Z,6.14
2023-01-26T16:06:34.734Z,5.81
2023-01-26T16:09:02.658Z,5.25
2023-01-26T16:12:00.086Z,5.83
2023-01-26T16:14:28.383Z,5.28
2023-01-26T16:16:57.795Z,5.59
2023-01-26T16:19:43.932Z,5.81
2023-01-26T16:22:13.690Z,6.15
2023-01-26T16:24:42.055Z,5.88
2023-01-26T16:27:10.929Z,6.42
2023-01-26T16:29:38.910Z,5.71
2023-01-26T16:32:28.979Z,5.36
2023-01-26T16:34:57.856Z,5.54
2023-01-26T16:37:26.204Z,6.05
2023-01-26T16:39:54.340Z,6.07
2023-01-26T16:42:22.691Z,6.46
2023-01-26T16:44:50.919Z,6.53
2023-01-26T16:47:20.418Z,6.55
2023-01-26T16:49:48.556Z,6.53
2023-01-26T16:52:16.549Z,6.82
2023-01-26T16:54:45.687Z,7.07
2023-01-26T16:57:13.678Z,6.82
2023-01-26T16:59:42.089Z,7.00
2023-01-26T17:02:24.445Z,6.52
2023-01-26T17:04:52.808Z,6.75
2023-01-26T17:07:20.907Z,6.91
2023-01-26T17:09:49.096Z,6.80
2023-01-26T17:12:17.007Z,6.07
2023-01-26T17:14:45.233Z,6.65
2023-01-26T17:17:13.389Z,7.03
2023-01-26T17:19:42.916Z,6.14
2023-01-26T17:22:10.875Z,5.16
2023-01-26T17:24:39.209Z,5.77
2023-01-26T17:27:07.185Z,5.67
2023-01-26T17:29:35.251Z,6.37
2023-01-26T17:32:05.610Z,6.20
2023-01-26T17:34:33.986Z,5.66
2023-01-26T17:37:03.357Z,6.11
2023-01-26T17:39:31.310Z,6.48
2023-01-26T17:42:06.932Z,6.31
2023-01-26T17:44:35.360Z,6.43
2023-01-26T17:47:03.601Z,5.36
2023-01-26T17:49:31.784Z,5.50
2023-01-26T17:51:59.918Z,6.09
2023-01-26T17:54:29.312Z,5.36
2023-01-26T17:56:58.150Z,6.01
2023-01-26T17:59:26.656Z,5.97
2023-01-26T18:01:55.025Z,6.19
2023-01-26T18:04:23.353Z,5.43
2023-01-26T18:06:53.619Z,4.97
2023-01-26T18:09:22.599Z,5.74
2023-01-26T18:11:52.505Z,5.35
2023-01-26T18:14:20.959Z,4.46
2023-01-26T18:16:50.554Z,4.74
2023-01-26T18:19:19.439Z,4.73
2023-01-26T18:21:51.083Z,4.59
2023-01-26T18:24:20.132Z,4.91
2023-01-26T18:26:48.777Z,4.56
2023-01-26T18:29:18.969Z,4.57
2023-01-26T18:31:50.564Z,5.50
2023-01-26T18:34:21.182Z,5.38
2023-01-26T18:36:52.500Z,5.16
2023-01-26T18:39:20.948Z,6.05
2023-01-26T18:41:49.821Z,5.32
2023-01-26T18:44:19.859Z,5.17
2023-01-26T18:46:50.164Z,5.40
2023-01-26T18:49:19.436Z,5.95
2023-01-26T18:51:50.047Z,5.91
2023-01-26T18:54:20.222Z,6.56
2023-01-26T18:56:49.238Z,5.95
2023-01-26T18:59:19.580Z,5.61
2023-01-26T19:01:49.224Z,5.87
2023-01-26T19:04:18.568Z,4.95
2023-01-26T19:06:51.999Z,5.05
2023-01-26T19:09:21.720Z,5.61
2023-01-26T19:11:53.753Z,5.30
2023-01-26T19:14:26.848Z,6.06
2023-01-26T19:16:59.267Z,5.66
2023-01-26T19:19:27.455Z,5.74
2023-01-26T19:21:56.378Z,6.16
2023-01-26T19:24:24.828Z,6.36
2023-01-26T19:26:53.013Z,5.27
2023-01-26T19:29:20.915Z,5.31
2023-01-26T19:31:53.242Z,5.35
2023-01-26T19:34:21.633Z,4.93
2023-01-26T19:36:49.982Z,4.83
2023-01-26T19:39:18.200Z,4.34
2023-01-26T19:41:46.986Z,5.30
2023-01-26T19:44:15.082Z,5.33
2023-01-26T19:46:43.164Z,5.14
2023-01-26T19:49:13.490Z,5.14
2023-01-26T19:51:41.841Z,5.09
2023-01-26T19:54:10.261Z,5.33
2023-01-26T19:56:38.536Z,4.54
2023-01-26T19:59:11.127Z,5.34
2023-01-26T20:01:42.157Z,5.04
2023-01-26T20:04:14.954Z,4.66
2023-01-26T20:06:43.057Z,5.35
2023-01-26T20:09:11.186Z,5.35
2023-01-26T20:11:39.529Z,4.58
2023-01-26T20:14:11.274Z,4.84
2023-01-26T20:16:39.913Z,4.62
2023-01-26T20:19:08.114Z,5.40
2023-01-26T20:21:38.788Z,5.82
2023-01-26T20:24:08.030Z,5.51
2023-01-26T20:26:40.427Z,5.47
2023-01-26T20:29:09.552Z,5.43
2023-01-26T20:31:47.524Z,5.28
2023-01-26T20:34:33.437Z,5.16
2023-01-26T20:37:08.417Z,5.39
2023-01-26T20:39:39.791Z,5.27
2023-01-26T20:42:11.391Z,5.03
2023-01-26T20:44:43.328Z,5.78
2023-01-26T20:47:41.530Z,5.60
2023-01-26T20:50:13.878Z,5.14
2023-01-26T20:52:50.798Z,4.63
2023-01-26T20:55:19.923Z,5.04
2023-01-26T20:57:55.143Z,5.06
2023-01-26T21:00:25.143Z,5.52
2023-01-26T21:02:54.248Z,5.14
2023-01-26T21:05:23.192Z,5.54
2023-01-26T21:07:53.938Z,5.49
2023-01-26T21:10:23.291Z,5.56
2023-01-26T21:12:52.583Z,5.62
2023-01-26T21:15:21.282Z,5.53
2023-01-26T21:17:49.320Z,5.97
2023-01-26T21:20:18.047Z,4.93
2023-01-26T21:22:46.422Z,5.17
2023-01-26T21:25:17.437Z,5.39
2023-01-26T21:27:46.126Z,5.35
2023-01-26T21:30:16.444Z,5.24
2023-01-26T21:32:45.925Z,5.36
2023-01-26T21:35:16.375Z,5.28
2023-01-26T21:37:45.216Z,5.38
2023-01-26T21:40:15.351Z,4.97
2023-01-26T21:42:44.868Z,5.45
2023-01-26T21:45:31.374Z,5.36
2023-01-26T21:48:14.422Z,4.89
2023-01-26T21:51:00.856Z,5.54
2023-01-26T21:53:30.351Z,5.16
2023-01-26T21:55:59.552Z,5.44
2023-01-26T21:58:47.186Z,5.59
2023-01-26T22:01:15.856Z,5.33
2023-01-26T22:03:44.612Z,5.53
2023-01-26T22:06:13.381Z,4.87
2023-01-26T22:08:41.517Z,5.43
2023-01-26T22:11:10.395Z,5.24
2023-01-26T22:13:40.087Z,5.26
2023-01-26T22:16:09.548Z,5.36
2023-01-26T22:18:43.212Z,5.34
2023-01-26T22:21:18.470Z,5.44
2023-01-26T22:23:47.772Z,5.63
2023-01-26T22:26:19.815Z,5.33
2023-01-26T22:28:52.865Z,5.18
2023-01-26T22:31:23.565Z,5.29
2023-01-26T22:33:52.401Z,5.56
2023-01-26T22:36:21.964Z,5.89
2023-01-26T22:38:50.916Z,5.60
2023-01-26T22:41:21.105Z,5.42
2023-01-26T22:43:53.389Z,5.75
2023-01-26T22:46:23.262Z,5.46
2023-01-26T22:48:51.730Z,6.25
2023-01-26T22:51:22.496Z,6.00
2023-01-26T22:53:52.370Z,4.99
2023-01-26T22:56:21.716Z,5.08
2023-01-26T22:58:58.113Z,5.90
2023-01-26T23:01:29.230Z,5.85
2023-01-26T23:03:57.757Z,5.36
2023-01-26T23:06:25.928Z,5.04
2023-01-26T23:08:54.562Z,5.57
2023-01-26T23:11:24.613Z,5.05
2023-01-26T23:13:56.337Z,5.41
2023-01-26T23:16:25.352Z,5.75
2023-01-26T23:18:54.756Z,5.66
2023-01-26T23:21:23.195Z,6.17
2023-01-26T23:23:52.372Z,5.80
2023-01-26T23:26:21.113Z,5.64
2023-01-26T23:28:49.372Z,5.34
2023-01-26T23:31:19.567Z,5.73
2023-01-26T23:33:48.395Z,5.93
2023-01-26T23:36:17.184Z,5.80
2023-01-26T23:38:46.468Z,5.01
2023-01-26T23:41:14.546Z,5.20
2023-01-26T23:43:42.613Z,5.77
2023-01-26T23:46:11.203Z,5.57
2023-01-26T23:48:41.547Z,5.75
2023-01-26T23:51:12.519Z,6.14
2023-01-26T23:53:41.842Z,6.29
2023-01-26T23:56:11.805Z,6.25
2023-01-26T23:58:40.795Z,6.53
